Time;durP1;ratioP1;P1;durP2;ratioP2;P2;SDS_P1;SDS_P2;PMS_P1;PMS_P2;Temp;Humidity;BMP_temperature;BMP_pressure;BME280_temperature;BME280_humidity;BME280_pressure;Samples;Min_cycle;Max_cycle;Signal;HPM_P1;HPM_P2
2021/09/27 00:02:02;;;;;;;55.03;41.13;;;;;;;;;;5018941;28;20064;-83
2021/09/27 00:04:29;;;;;;;56.92;42.05;;;;;;;;;;5018691;28;20055;-83
2021/09/27 00:06:55;;;;;;;57.67;42.05;;;;;;;;;;5018366;28;20053;-82
2021/09/27 00:09:22;;;;;;;54.75;42.00;;;;;;;;;;5017768;28;20049;-82
2021/09/27 00:11:49;;;;;;;55.92;40.42;;;;;;;;;;5036428;28;20369;-84
2021/09/27 00:14:16;;;;;;;54.90;42.10;;;;;;;;;;5035250;28;20312;-84
2021/09/27 00:16:43;;;;;;;52.83;42.38;;;;;;;;;;5036873;28;20046;-84
2021/09/27 00:19:10;;;;;;;50.28;40.08;;;;;;;;;;5039734;28;20144;-84
2021/09/27 00:21:36;;;;;;;52.20;40.00;;;;;;;;;;5039123;28;20064;-83
2021/09/27 00:24:04;;;;;;;55.72;42.17;;;;;;;;;;5022380;28;20050;-84
2021/09/27 00:26:31;;;;;;;54.10;40.28;;;;;;;;;;5023608;28;20390;-84
2021/09/27 00:28:58;;;;;;;50.63;41.70;;;;;;;;;;5024158;28;20061;-84
2021/09/27 00:31:25;;;;;;;58.20;43.15;;;;;;;;;;5040064;28;20059;-83
2021/09/27 00:33:52;;;;;;;52.53;42.13;;;;;;;;;;5040033;28;20057;-84
2021/09/27 00:36:19;;;;;;;50.30;39.47;;;;;;;;;;5041885;28;20115;-84
2021/09/27 00:38:46;;;;;;;54.22;41.95;;;;;;;;;;5023584;28;20207;-84
2021/09/27 00:41:16;;;;;;;53.47;41.35;;;;;;;;;;5024123;28;20167;-84
2021/09/27 00:43:43;;;;;;;52.40;38.55;;;;;;;;;;5023611;28;20119;-84
2021/09/27 00:46:12;;;;;;;47.58;37.45;;;;;;;;;;5036296;28;20053;-84
2021/09/27 00:48:39;;;;;;;48.05;37.22;;;;;;;;;;5021873;28;20088;-84
2021/09/27 00:51:25;;;;;;;48.30;37.50;;;;;;;;;;5024195;28;20052;-83
2021/09/27 00:53:56;;;;;;;53.55;35.92;;;;;;;;;;5041555;28;20060;-83
2021/09/27 00:56:33;;;;;;;47.22;35.40;;;;;;;;;;5032560;28;20042;-83
2021/09/27 00:59:00;;;;;;;42.78;33.72;;;;;;;;;;5048651;28;20052;-84
2021/09/27 01:01:27;;;;;;;43.60;34.42;;;;;;;;;;5040381;28;20049;-84
2021/09/27 01:03:56;;;;;;;45.63;35.22;;;;;;;;;;5021692;28;20060;-84
2021/09/27 01:06:22;;;;;;;42.05;32.40;;;;;;;;;;5039986;28;20083;-84
2021/09/27 01:08:58;;;;;;;44.50;33.78;;;;;;;;;;5022570;28;20060;-84
2021/09/27 01:11:34;;;;;;;43.72;32.60;;;;;;;;;;5021803;28;20130;-84
2021/09/27 01:14:20;;;;;;;40.10;30.77;;;;;;;;;;5024398;28;20050;-84
2021/09/27 01:17:17;;;;;;;39.75;29.73;;;;;;;;;;5051006;28;20068;-84
2021/09/27 01:20:03;;;;;;;46.53;31.20;;;;;;;;;;5032599;28;20140;-84
2021/09/27 01:22:48;;;;;;;43.33;30.17;;;;;;;;;;5037831;28;20053;-83
2021/09/27 01:25:34;;;;;;;37.95;31.33;;;;;;;;;;5039267;28;20160;-83
2021/09/27 01:28:19;;;;;;;39.35;29.63;;;;;;;;;;5039897;28;20050;-83
2021/09/27 01:30:58;;;;;;;38.78;30.27;;;;;;;;;;5039428;28;20301;-84
2021/09/27 01:33:33;;;;;;;40.65;31.00;;;;;;;;;;5037157;28;20116;-85
2021/09/27 01:36:07;;;;;;;42.38;30.60;;;;;;;;;;5039635;28;20076;-84
2021/09/27 01:38:34;;;;;;;38.78;29.73;;;;;;;;;;5039951;28;20068;-84
2021/09/27 01:41:05;;;;;;;32.40;26.60;;;;;;;;;;5045571;28;20049;-84
2021/09/27 01:43:39;;;;;;;38.90;30.25;;;;;;;;;;5050665;28;20054;-84
2021/09/27 01:46:24;;;;;;;36.55;25.50;;;;;;;;;;5047422;28;20288;-84
2021/09/27 01:48:56;;;;;;;35.95;25.58;;;;;;;;;;5038456;28;20052;-84
2021/09/27 01:51:22;;;;;;;35.30;27.55;;;;;;;;;;5038641;28;20053;-84
2021/09/27 01:53:52;;;;;;;34.75;26.00;;;;;;;;;;5042539;28;20033;-84
2021/09/27 01:56:27;;;;;;;36.72;24.92;;;;;;;;;;5057021;28;20052;-84
2021/09/27 01:59:16;;;;;;;37.38;25.45;;;;;;;;;;5050352;28;20053;-84
2021/09/27 02:01:58;;;;;;;33.40;23.38;;;;;;;;;;5038737;28;20065;-84
2021/09/27 02:04:30;;;;;;;35.42;23.33;;;;;;;;;;5043112;28;20160;-84
2021/09/27 02:06:59;;;;;;;31.73;21.98;;;;;;;;;;5055321;28;20104;-84
2021/09/27 02:09:31;;;;;;;31.85;23.80;;;;;;;;;;5040644;28;20064;-84
2021/09/27 02:12:02;;;;;;;31.48;22.45;;;;;;;;;;5037445;28;20053;-84
2021/09/27 02:14:33;;;;;;;34.05;22.13;;;;;;;;;;5037461;28;20136;-84
2021/09/27 02:17:03;;;;;;;28.50;20.13;;;;;;;;;;5037177;28;20084;-85
2021/09/27 02:19:32;;;;;;;28.05;21.40;;;;;;;;;;5045220;28;20122;-84
2021/09/27 02:22:05;;;;;;;30.63;22.25;;;;;;;;;;5047241;28;20062;-84
2021/09/27 02:24:33;;;;;;;30.02;22.23;;;;;;;;;;5038659;28;20053;-84
2021/09/27 02:27:02;;;;;;;28.70;20.67;;;;;;;;;;5038524;28;20045;-84
2021/09/27 02:29:29;;;;;;;30.08;20.95;;;;;;;;;;5038733;28;20045;-84
2021/09/27 02:32:08;;;;;;;32.55;21.40;;;;;;;;;;5038399;28;20041;-84
2021/09/27 02:34:45;;;;;;;28.38;20.63;;;;;;;;;;5037485;28;20295;-84
2021/09/27 02:37:19;;;;;;;33.25;21.80;;;;;;;;;;5041189;28;20049;-84
2021/09/27 02:39:52;;;;;;;26.35;20.33;;;;;;;;;;5039011;28;20410;-85
2021/09/27 02:42:25;;;;;;;34.38;22.52;;;;;;;;;;5037738;28;20071;-84
2021/09/27 02:44:52;;;;;;;37.33;21.90;;;;;;;;;;5037240;28;20064;-85
2021/09/27 02:47:21;;;;;;;33.42;23.40;;;;;;;;;;5037908;28;20437;-85
2021/09/27 02:49:48;;;;;;;32.13;21.77;;;;;;;;;;5037555;28;20445;-85
2021/09/27 02:52:19;;;;;;;33.25;23.50;;;;;;;;;;5036270;28;20132;-85
2021/09/27 02:54:48;;;;;;;30.10;23.42;;;;;;;;;;5036541;28;20379;-85
2021/09/27 02:57:32;;;;;;;32.67;22.90;;;;;;;;;;5037033;28;20169;-85
2021/09/27 03:00:08;;;;;;;31.80;22.40;;;;;;;;;;5037776;28;20049;-85
2021/09/27 03:02:53;;;;;;;39.17;24.50;;;;;;;;;;5037652;28;20053;-85
2021/09/27 03:05:33;;;;;;;40.60;24.50;;;;;;;;;;5038653;28;20045;-85
2021/09/27 03:08:28;;;;;;;37.03;23.40;;;;;;;;;;5037905;28;20336;-84
2021/09/27 03:10:57;;;;;;;34.00;23.95;;;;;;;;;;5052419;28;20049;-84
2021/09/27 03:13:40;;;;;;;35.47;22.95;;;;;;;;;;5036010;28;20059;-85
2021/09/27 03:16:06;;;;;;;34.58;23.23;;;;;;;;;;5037263;28;20049;-84
2021/09/27 03:18:52;;;;;;;36.45;23.83;;;;;;;;;;5037904;28;20395;-84
2021/09/27 03:21:23;;;;;;;30.92;24.45;;;;;;;;;;5036204;28;20045;-84
2021/09/27 03:24:12;;;;;;;37.25;25.13;;;;;;;;;;5036096;28;20061;-84
2021/09/27 03:26:41;;;;;;;35.20;24.30;;;;;;;;;;5036609;28;20049;-85
2021/09/27 03:29:27;;;;;;;40.03;25.92;;;;;;;;;;5035815;28;20076;-84
2021/09/27 03:32:09;;;;;;;38.83;24.70;;;;;;;;;;5036264;28;20049;-84
2021/09/27 03:34:39;;;;;;;34.03;25.05;;;;;;;;;;5034954;28;20412;-84
2021/09/27 03:37:15;;;;;;;41.13;25.55;;;;;;;;;;5043261;28;20052;-84
2021/09/27 03:39:51;;;;;;;42.30;24.30;;;;;;;;;;5046956;28;20155;-83
2021/09/27 03:42:41;;;;;;;37.13;25.80;;;;;;;;;;5039572;28;20144;-83
2021/09/27 03:45:28;;;;;;;35.05;24.15;;;;;;;;;;5023390;28;20286;-84
2021/09/27 03:47:58;;;;;;;38.70;25.23;;;;;;;;;;5034650;28;20220;-84
2021/09/27 03:50:30;;;;;;;41.80;26.80;;;;;;;;;;5033015;28;20162;-83
2021/09/27 03:53:04;;;;;;;39.08;26.13;;;;;;;;;;5033628;28;20194;-84
2021/09/27 03:55:43;;;;;;;37.05;25.88;;;;;;;;;;5034961;28;20056;-84
2021/09/27 03:58:13;;;;;;;37.28;26.27;;;;;;;;;;5034306;28;20049;-84
2021/09/27 04:00:44;;;;;;;42.58;26.33;;;;;;;;;;5051366;28;20092;-83
2021/09/27 04:03:27;;;;;;;43.75;28.17;;;;;;;;;;5049620;28;20049;-83
2021/09/27 04:06:18;;;;;;;41.00;27.98;;;;;;;;;;5035194;28;20405;-83
2021/09/27 04:08:56;;;;;;;42.53;26.83;;;;;;;;;;5034383;28;20321;-83
2021/09/27 04:11:37;;;;;;;40.67;27.52;;;;;;;;;;5033031;28;20173;-83
2021/09/27 04:14:25;;;;;;;45.70;28.73;;;;;;;;;;5033166;28;20107;-85
2021/09/27 04:17:13;;;;;;;43.75;28.45;;;;;;;;;;5040993;28;20052;-83
2021/09/27 04:19:46;;;;;;;44.30;29.77;;;;;;;;;;5053999;28;20061;-84
2021/09/27 04:22:16;;;;;;;42.97;28.77;;;;;;;;;;5051463;28;20068;-85
2021/09/27 04:25:02;;;;;;;44.17;29.25;;;;;;;;;;5051522;28;20077;-84
2021/09/27 04:27:29;;;;;;;40.05;28.50;;;;;;;;;;5054249;28;20045;-84
2021/09/27 04:30:14;;;;;;;43.63;28.25;;;;;;;;;;5060962;28;20057;-84
2021/09/27 04:32:44;;;;;;;42.85;30.55;;;;;;;;;;5058932;28;20614;-84
2021/09/27 04:35:30;;;;;;;43.75;30.13;;;;;;;;;;5054612;28;20067;-85
2021/09/27 04:37:56;;;;;;;47.97;32.22;;;;;;;;;;5052582;28;20040;-84
2021/09/27 04:40:44;;;;;;;49.60;31.08;;;;;;;;;;5052697;28;20041;-85
2021/09/27 04:43:11;;;;;;;50.63;31.80;;;;;;;;;;5026005;28;20116;-84
2021/09/27 04:45:46;;;;;;;51.72;32.47;;;;;;;;;;5032101;28;20128;-84
2021/09/27 04:48:13;;;;;;;49.65;31.80;;;;;;;;;;5031016;28;20049;-84
2021/09/27 04:50:53;;;;;;;51.05;30.63;;;;;;;;;;5029370;28;20057;-84
2021/09/27 04:53:29;;;;;;;55.30;33.47;;;;;;;;;;5041111;28;20045;-84
2021/09/27 04:55:56;;;;;;;57.42;31.48;;;;;;;;;;5047898;28;20049;-83
2021/09/27 04:58:26;;;;;;;51.70;31.70;;;;;;;;;;5037282;28;20385;-84
2021/09/27 05:01:13;;;;;;;52.03;31.35;;;;;;;;;;5019851;28;20116;-84
2021/09/27 05:03:53;;;;;;;51.00;32.25;;;;;;;;;;5018756;28;20289;-84
2021/09/27 05:06:33;;;;;;;53.42;32.60;;;;;;;;;;5043592;28;20037;-84
2021/09/27 05:09:00;;;;;;;53.47;32.25;;;;;;;;;;5040362;28;20082;-85
2021/09/27 05:11:44;;;;;;;58.15;33.30;;;;;;;;;;5029428;28;20049;-82
2021/09/27 05:14:21;;;;;;;54.92;32.67;;;;;;;;;;5039979;28;20054;-83
2021/09/27 05:16:50;;;;;;;53.83;33.80;;;;;;;;;;5038800;28;20114;-84
2021/09/27 05:19:16;;;;;;;48.75;31.95;;;;;;;;;;5035459;28;20084;-84
2021/09/27 05:21:46;;;;;;;54.13;32.55;;;;;;;;;;5029370;28;20117;-84
2021/09/27 05:24:32;;;;;;;42.13;29.10;;;;;;;;;;5031630;28;20053;-84
2021/09/27 05:27:19;;;;;;;52.28;32.35;;;;;;;;;;5029466;28;20202;-85
2021/09/27 05:30:02;;;;;;;51.97;32.85;;;;;;;;;;5029757;28;20262;-84
2021/09/27 05:33:18;;;;;;;44.83;29.38;;;;;;;;;;5021616;28;20345;-85
2021/09/27 05:36:06;;;;;;;52.05;32.13;;;;;;;;;;5032830;28;20340;-84
2021/09/27 05:38:52;;;;;;;52.65;33.20;;;;;;;;;;5028565;28;20045;-85
2021/09/27 05:41:27;;;;;;;48.57;32.60;;;;;;;;;;5029303;28;20053;-83
2021/09/27 05:44:20;;;;;;;62.40;32.93;;;;;;;;;;5030323;28;20140;-84
2021/09/27 05:46:55;;;;;;;53.22;31.92;;;;;;;;;;5020668;28;20049;-84
2021/09/27 05:49:31;;;;;;;49.03;32.72;;;;;;;;;;5024714;28;20053;-84
2021/09/27 05:52:06;;;;;;;52.08;31.83;;;;;;;;;;5029701;28;20205;-84
2021/09/27 05:54:39;;;;;;;56.47;33.05;;;;;;;;;;5029308;28;20140;-84
2021/09/27 05:57:09;;;;;;;58.40;33.72;;;;;;;;;;5027725;28;20113;-83
2021/09/27 05:59:44;;;;;;;58.08;34.47;;;;;;;;;;5028626;28;20096;-84
2021/09/27 06:02:11;;;;;;;45.78;31.33;;;;;;;;;;5030779;28;20046;-84
2021/09/27 06:04:45;;;;;;;53.58;31.38;;;;;;;;;;5029943;28;20057;-84
2021/09/27 06:07:29;;;;;;;44.22;32.58;;;;;;;;;;5031345;28;20194;-83
2021/09/27 06:10:18;;;;;;;53.60;32.58;;;;;;;;;;5054131;28;20058;-83
2021/09/27 06:13:01;;;;;;;53.03;32.42;;;;;;;;;;5050330;28;20276;-84
2021/09/27 06:15:33;;;;;;;51.90;30.65;;;;;;;;;;5025989;28;20268;-84
2021/09/27 06:18:09;;;;;;;49.58;30.77;;;;;;;;;;5045659;28;20212;-82
2021/09/27 06:21:06;;;;;;;49.78;30.55;;;;;;;;;;5035707;28;20053;-84
2021/09/27 06:23:46;;;;;;;55.30;32.97;;;;;;;;;;5030474;28;20122;-84
2021/09/27 06:26:17;;;;;;;51.25;34.00;;;;;;;;;;5032497;28;20356;-85
2021/09/27 06:28:50;;;;;;;47.35;30.55;;;;;;;;;;5032180;28;20171;-84
2021/09/27 06:31:27;;;;;;;46.40;31.00;;;;;;;;;;5032638;28;20446;-84
2021/09/27 06:34:03;;;;;;;52.75;31.40;;;;;;;;;;5029193;28;20045;-84
2021/09/27 06:36:32;;;;;;;47.28;31.20;;;;;;;;;;5029023;28;20203;-84
2021/09/27 06:39:00;;;;;;;48.63;30.38;;;;;;;;;;5033270;28;20113;-85
2021/09/27 06:41:29;;;;;;;40.80;29.48;;;;;;;;;;5029383;28;20125;-83
2021/09/27 06:43:56;;;;;;;42.65;28.10;;;;;;;;;;5031030;28;20392;-83
2021/09/27 06:46:23;;;;;;;44.60;28.90;;;;;;;;;;5029589;28;20307;-84
2021/09/27 06:48:50;;;;;;;42.50;28.35;;;;;;;;;;5036861;28;20041;-84
2021/09/27 06:51:17;;;;;;;35.95;26.73;;;;;;;;;;5026712;28;20060;-84
2021/09/27 06:53:50;;;;;;;36.55;25.05;;;;;;;;;;5030074;28;20049;-84
2021/09/27 06:56:17;;;;;;;38.47;24.33;;;;;;;;;;5027968;28;20152;-84
2021/09/27 06:58:43;;;;;;;38.53;25.90;;;;;;;;;;5028418;28;20348;-84
2021/09/27 07:01:10;;;;;;;44.35;25.33;;;;;;;;;;5029099;28;20060;-84
2021/09/27 07:03:37;;;;;;;42.22;25.35;;;;;;;;;;5024675;28;20048;-83
2021/09/27 07:06:03;;;;;;;38.63;23.52;;;;;;;;;;5030761;28;20057;-83
2021/09/27 07:08:30;;;;;;;35.60;22.33;;;;;;;;;;5027135;28;20488;-83
2021/09/27 07:10:57;;;;;;;40.00;22.83;;;;;;;;;;5026258;28;20517;-83
2021/09/27 07:13:24;;;;;;;31.20;21.83;;;;;;;;;;5026587;28;20281;-83
2021/09/27 07:16:00;;;;;;;33.13;21.20;;;;;;;;;;5027952;28;20050;-83
2021/09/27 07:18:27;;;;;;;32.65;22.17;;;;;;;;;;5028537;28;20045;-83
2021/09/27 07:20:58;;;;;;;33.90;22.85;;;;;;;;;;5026460;28;20061;-83
2021/09/27 07:23:28;;;;;;;34.47;21.10;;;;;;;;;;5028345;28;20087;-84
2021/09/27 07:25:55;;;;;;;38.53;21.73;;;;;;;;;;5030787;28;20057;-83
2021/09/27 07:28:22;;;;;;;35.47;20.98;;;;;;;;;;5027738;28;20276;-84
2021/09/27 07:30:50;;;;;;;31.23;19.75;;;;;;;;;;5017543;28;20402;-84
2021/09/27 07:33:18;;;;;;;28.73;19.42;;;;;;;;;;5005334;28;20089;-85
2021/09/27 07:35:45;;;;;;;28.17;19.15;;;;;;;;;;5012061;28;20314;-84
2021/09/27 07:38:12;;;;;;;30.08;19.50;;;;;;;;;;5043750;28;20050;-83
2021/09/27 07:40:39;;;;;;;29.42;19.75;;;;;;;;;;5041022;28;20041;-84
2021/09/27 07:43:07;;;;;;;28.80;19.75;;;;;;;;;;5027867;28;20064;-83
2021/09/27 07:45:34;;;;;;;30.20;18.58;;;;;;;;;;5027388;28;20059;-84
2021/09/27 07:48:06;;;;;;;27.35;19.40;;;;;;;;;;5027259;28;20083;-84
2021/09/27 07:50:33;;;;;;;27.90;17.63;;;;;;;;;;5027371;28;20110;-84
2021/09/27 07:53:00;;;;;;;25.05;17.13;;;;;;;;;;5025436;28;20162;-84
2021/09/27 07:55:27;;;;;;;30.20;17.73;;;;;;;;;;5026936;28;20402;-83
2021/09/27 07:57:54;;;;;;;20.83;15.45;;;;;;;;;;5037379;28;20038;-84
2021/09/27 08:00:23;;;;;;;22.10;15.98;;;;;;;;;;5055597;28;20045;-84
2021/09/27 08:02:50;;;;;;;23.02;15.38;;;;;;;;;;5025049;28;20189;-83
2021/09/27 08:05:22;;;;;;;19.42;14.55;;;;;;;;;;5032883;28;20443;-83
2021/09/27 08:07:49;;;;;;;22.33;14.57;;;;;;;;;;5033643;28;20054;-84
2021/09/27 08:10:16;;;;;;;17.80;12.82;;;;;;;;;;5040247;28;20045;-83
2021/09/27 08:12:44;;;;;;;22.90;13.77;;;;;;;;;;5040003;28;20397;-84
2021/09/27 08:15:14;;;;;;;19.23;15.10;;;;;;;;;;5036457;28;20069;-85
2021/09/27 08:17:41;;;;;;;21.48;14.38;;;;;;;;;;5040128;28;20040;-83
2021/09/27 08:20:10;;;;;;;20.30;14.20;;;;;;;;;;5043443;28;20281;-84
2021/09/27 08:22:37;;;;;;;23.52;14.90;;;;;;;;;;5050242;28;20075;-83
2021/09/27 08:25:05;;;;;;;18.13;12.95;;;;;;;;;;5008640;28;20108;-84
2021/09/27 08:27:32;;;;;;;21.15;13.52;;;;;;;;;;5008589;28;20046;-83
2021/09/27 08:30:00;;;;;;;21.45;14.57;;;;;;;;;;5026057;28;20052;-83
2021/09/27 08:32:27;;;;;;;20.23;13.13;;;;;;;;;;5025889;28;20045;-84
2021/09/27 08:34:54;;;;;;;14.77;11.90;;;;;;;;;;5023230;28;20079;-83
2021/09/27 08:37:21;;;;;;;21.20;12.73;;;;;;;;;;5005048;28;20052;-84
2021/09/27 08:39:48;;;;;;;18.60;12.38;;;;;;;;;;5005139;28;20226;-84
2021/09/27 08:42:36;;;;;;;23.05;12.20;;;;;;;;;;5015242;28;20049;-83
2021/09/27 08:45:24;;;;;;;15.52;10.40;;;;;;;;;;5016403;28;20317;-84
2021/09/27 08:48:02;;;;;;;15.98;11.20;;;;;;;;;;5017276;28;20110;-83
2021/09/27 08:50:31;;;;;;;17.00;10.63;;;;;;;;;;5013121;28;20088;-84
2021/09/27 08:53:06;;;;;;;14.82;10.50;;;;;;;;;;5030111;28;20059;-85
2021/09/27 08:55:34;;;;;;;14.57;9.73;;;;;;;;;;5034604;28;20291;-83
2021/09/27 08:58:08;;;;;;;15.20;10.45;;;;;;;;;;5029548;28;20050;-84
2021/09/27 09:00:38;;;;;;;18.58;10.32;;;;;;;;;;5031844;28;20050;-84
2021/09/27 09:03:13;;;;;;;15.32;11.32;;;;;;;;;;4999266;28;20243;-83
2021/09/27 09:05:53;;;;;;;17.90;11.70;;;;;;;;;;5021741;28;20104;-84
2021/09/27 09:08:30;;;;;;;14.20;9.93;;;;;;;;;;5015728;28;20103;-84
2021/09/27 09:10:57;;;;;;;14.80;9.95;;;;;;;;;;5031508;28;20095;-83
2021/09/27 09:13:27;;;;;;;18.58;10.38;;;;;;;;;;5026108;28;20072;-84
2021/09/27 09:16:01;;;;;;;14.88;10.18;;;;;;;;;;5024139;28;20068;-84
2021/09/27 09:18:43;;;;;;;13.82;9.18;;;;;;;;;;5024347;28;20092;-83
2021/09/27 09:21:19;;;;;;;10.80;8.52;;;;;;;;;;5026480;28;20092;-84
2021/09/27 09:23:52;;;;;;;12.45;7.30;;;;;;;;;;5028562;28;20452;-84
2021/09/27 09:26:32;;;;;;;13.68;7.85;;;;;;;;;;5027570;28;20061;-84
2021/09/27 09:28:59;;;;;;;11.48;7.13;;;;;;;;;;5012281;28;20057;-84
2021/09/27 09:31:33;;;;;;;11.55;7.13;;;;;;;;;;5035295;28;20081;-84
2021/09/27 09:34:05;;;;;;;11.82;7.05;;;;;;;;;;5021164;28;20468;-84
2021/09/27 09:36:32;;;;;;;11.13;6.40;;;;;;;;;;5027474;28;20073;-84
2021/09/27 09:39:00;;;;;;;12.90;7.45;;;;;;;;;;5024118;28;20049;-84
2021/09/27 09:41:50;;;;;;;9.80;6.97;;;;;;;;;;5022046;28;20045;-84
2021/09/27 09:44:22;;;;;;;9.07;7.25;;;;;;;;;;5023372;28;20324;-83
2021/09/27 09:47:08;;;;;;;10.77;6.53;;;;;;;;;;5015921;28;20137;-84
2021/09/27 09:49:53;;;;;;;12.40;7.38;;;;;;;;;;5017588;28;20406;-83
2021/09/27 09:52:39;;;;;;;12.23;8.35;;;;;;;;;;5034319;28;20161;-83
2021/09/27 09:55:17;;;;;;;11.60;7.07;;;;;;;;;;5024856;28;20564;-83
2021/09/27 09:57:53;;;;;;;14.45;8.80;;;;;;;;;;5026625;28;20383;-83
2021/09/27 10:00:59;;;;;;;10.38;8.23;;;;;;;;;;5030012;28;20089;-84
2021/09/27 10:03:29;;;;;;;12.48;7.75;;;;;;;;;;4988812;28;20046;-83
2021/09/27 10:05:57;;;;;;;15.90;7.78;;;;;;;;;;4989133;28;20127;-84
2021/09/27 10:08:26;;;;;;;11.10;8.30;;;;;;;;;;5004084;28;20197;-83
2021/09/27 10:11:08;;;;;;;11.13;7.70;;;;;;;;;;5007174;28;20306;-84
2021/09/27 10:13:35;;;;;;;14.93;8.35;;;;;;;;;;5008508;28;20156;-84
2021/09/27 10:16:04;;;;;;;13.77;7.68;;;;;;;;;;5009333;28;20085;-84
2021/09/27 10:18:32;;;;;;;11.80;8.18;;;;;;;;;;5030462;28;20072;-85
2021/09/27 10:21:17;;;;;;;14.70;7.55;;;;;;;;;;5025143;28;20328;-84
2021/09/27 10:23:48;;;;;;;12.33;7.60;;;;;;;;;;5020715;28;20050;-84
2021/09/27 10:26:27;;;;;;;12.55;7.28;;;;;;;;;;5010479;28;20313;-84
2021/09/27 10:29:10;;;;;;;12.02;7.43;;;;;;;;;;5009465;28;20142;-84
2021/09/27 10:31:38;;;;;;;15.80;8.10;;;;;;;;;;5025076;28;20053;-84
2021/09/27 10:34:12;;;;;;;13.00;7.93;;;;;;;;;;5027962;28;20046;-83
2021/09/27 10:36:45;;;;;;;10.57;7.32;;;;;;;;;;5030778;28;20136;-84
2021/09/27 10:39:16;;;;;;;13.50;8.13;;;;;;;;;;5023398;28;20056;-84
2021/09/27 10:42:02;;;;;;;10.13;7.22;;;;;;;;;;5022232;28;20057;-84
2021/09/27 10:44:40;;;;;;;10.90;7.83;;;;;;;;;;5023961;28;20127;-86
2021/09/27 10:47:11;;;;;;;14.63;6.60;;;;;;;;;;5028360;28;20058;-84
2021/09/27 10:49:42;;;;;;;10.95;6.68;;;;;;;;;;5024184;28;20161;-83
2021/09/27 10:52:09;;;;;;;12.00;8.18;;;;;;;;;;5023763;28;20115;-85
2021/09/27 10:54:39;;;;;;;13.30;6.55;;;;;;;;;;5041011;28;20559;-85
2021/09/27 10:57:12;;;;;;;14.70;7.72;;;;;;;;;;5050661;28;20081;-85
2021/09/27 11:00:00;;;;;;;12.98;7.82;;;;;;;;;;5036483;28;20258;-84
2021/09/27 11:02:38;;;;;;;13.82;7.35;;;;;;;;;;5031887;28;20106;-84
2021/09/27 11:05:11;;;;;;;13.82;7.95;;;;;;;;;;5029732;28;20110;-84
2021/09/27 11:07:45;;;;;;;11.43;6.88;;;;;;;;;;5047443;28;20226;-84
2021/09/27 11:10:40;;;;;;;15.38;7.72;;;;;;;;;;5049412;28;20091;-84
2021/09/27 11:13:29;;;;;;;10.77;7.07;;;;;;;;;;5028915;28;20065;-84
2021/09/27 11:16:00;;;;;;;12.05;6.82;;;;;;;;;;5022209;28;20068;-86
2021/09/27 11:18:27;;;;;;;13.63;7.93;;;;;;;;;;5027367;28;20240;-84
2021/09/27 11:21:17;;;;;;;12.40;6.70;;;;;;;;;;5031205;28;20041;-85
2021/09/27 11:23:46;;;;;;;9.55;6.50;;;;;;;;;;5014194;28;20050;-84
2021/09/27 11:26:15;;;;;;;11.88;7.22;;;;;;;;;;5018456;28;20386;-84
2021/09/27 11:28:50;;;;;;;11.40;6.90;;;;;;;;;;5033192;28;20076;-85
2021/09/27 11:31:21;;;;;;;11.20;7.22;;;;;;;;;;5047503;28;20029;-84
2021/09/27 11:33:50;;;;;;;10.52;7.28;;;;;;;;;;5053727;28;20048;-83
2021/09/27 11:36:17;;;;;;;14.20;8.88;;;;;;;;;;5038901;28;20048;-84
2021/09/27 11:38:53;;;;;;;10.00;7.43;;;;;;;;;;5047325;28;20033;-85
2021/09/27 11:41:20;;;;;;;11.40;7.45;;;;;;;;;;5045914;28;20045;-85
2021/09/27 11:44:00;;;;;;;12.82;8.90;;;;;;;;;;5035684;28;20620;-84
2021/09/27 11:46:51;;;;;;;11.18;8.73;;;;;;;;;;5029050;28;20053;-85
2021/09/27 11:49:24;;;;;;;11.80;8.45;;;;;;;;;;5030197;28;20450;-85
2021/09/27 11:52:02;;;;;;;17.17;8.20;;;;;;;;;;5026363;28;20041;-85
2021/09/27 11:54:42;;;;;;;14.93;8.48;;;;;;;;;;5026846;28;20274;-84
2021/09/27 11:57:12;;;;;;;13.85;7.93;;;;;;;;;;5026958;28;20099;-85
2021/09/27 11:59:43;;;;;;;11.35;7.78;;;;;;;;;;5031038;28;20041;-84
2021/09/27 12:02:31;;;;;;;14.10;7.50;;;;;;;;;;5028802;28;20041;-84
2021/09/27 12:05:26;;;;;;;20.60;7.60;;;;;;;;;;5030018;28;20072;-86
2021/09/27 12:08:13;;;;;;;13.93;8.05;;;;;;;;;;5011424;28;20060;-83
2021/09/27 12:10:53;;;;;;;13.05;7.68;;;;;;;;;;5030654;28;20068;-84
2021/09/27 12:13:24;;;;;;;13.70;7.78;;;;;;;;;;5029175;28;20124;-85
2021/09/27 12:15:56;;;;;;;13.82;6.65;;;;;;;;;;5034459;28;20109;-84
2021/09/27 12:18:41;;;;;;;12.43;7.55;;;;;;;;;;5035663;28;20045;-84
2021/09/27 12:21:16;;;;;;;11.65;7.25;;;;;;;;;;5040816;28;20053;-86
2021/09/27 12:23:47;;;;;;;11.85;7.78;;;;;;;;;;5034222;28;20095;-84
2021/09/27 12:26:24;;;;;;;10.82;7.22;;;;;;;;;;5034741;28;20053;-85
2021/09/27 12:29:20;;;;;;;10.32;7.07;;;;;;;;;;5034801;28;20338;-86
2021/09/27 12:31:56;;;;;;;12.02;7.25;;;;;;;;;;5016845;28;20057;-84
2021/09/27 12:34:27;;;;;;;12.70;7.20;;;;;;;;;;5033100;28;20259;-84
2021/09/27 12:36:57;;;;;;;10.63;6.80;;;;;;;;;;5032283;28;20266;-85
2021/09/27 12:39:30;;;;;;;14.93;7.43;;;;;;;;;;5032624;28;20049;-84
2021/09/27 12:41:58;;;;;;;9.93;6.88;;;;;;;;;;5035273;28;20072;-84
2021/09/27 12:44:30;;;;;;;9.98;6.65;;;;;;;;;;5031612;28;20417;-84
2021/09/27 12:47:00;;;;;;;10.73;7.20;;;;;;;;;;5029369;28;20057;-85
2021/09/27 12:49:47;;;;;;;14.85;7.30;;;;;;;;;;5015509;28;20045;-85
2021/09/27 12:52:27;;;;;;;7.30;6.25;;;;;;;;;;5020414;28;20056;-85
2021/09/27 12:55:12;;;;;;;12.90;5.68;;;;;;;;;;5026873;28;20521;-85
2021/09/27 12:57:40;;;;;;;9.57;6.05;;;;;;;;;;5029783;28;20042;-85
2021/09/27 13:00:27;;;;;;;9.02;6.78;;;;;;;;;;5030923;28;20211;-85
2021/09/27 13:02:54;;;;;;;9.55;6.00;;;;;;;;;;5021377;28;20353;-84
2021/09/27 13:05:24;;;;;;;11.52;6.68;;;;;;;;;;5033153;28;20097;-84
2021/09/27 13:07:53;;;;;;;8.93;6.00;;;;;;;;;;5031126;28;20111;-85
2021/09/27 13:10:46;;;;;;;9.10;6.38;;;;;;;;;;5032463;28;20050;-85
2021/09/27 13:13:13;;;;;;;9.55;6.97;;;;;;;;;;5030734;28;20060;-85
2021/09/27 13:15:53;;;;;;;10.57;6.45;;;;;;;;;;5028036;28;20370;-85
2021/09/27 13:18:33;;;;;;;10.80;6.75;;;;;;;;;;5011305;28;20118;-84
2021/09/27 13:21:03;;;;;;;11.85;7.25;;;;;;;;;;5009586;28;20417;-84
2021/09/27 13:23:36;;;;;;;13.88;6.65;;;;;;;;;;5032315;28;20144;-85
2021/09/27 13:26:12;;;;;;;11.23;7.20;;;;;;;;;;5018446;28;20268;-84
2021/09/27 13:28:41;;;;;;;11.50;6.97;;;;;;;;;;5028909;28;20092;-84
2021/09/27 13:31:11;;;;;;;10.70;7.13;;;;;;;;;;5028790;28;20109;-85
2021/09/27 13:33:55;;;;;;;11.85;7.22;;;;;;;;;;5028909;28;20138;-84
2021/09/27 13:36:24;;;;;;;9.90;7.32;;;;;;;;;;5018466;28;20333;-85
2021/09/27 13:39:04;;;;;;;13.32;7.22;;;;;;;;;;5030549;28;20095;-85
2021/09/27 13:41:47;;;;;;;12.80;7.90;;;;;;;;;;5029544;28;20068;-84
2021/09/27 13:44:28;;;;;;;11.73;8.00;;;;;;;;;;5030266;28;20068;-84
2021/09/27 13:46:55;;;;;;;11.20;8.20;;;;;;;;;;5032611;28;20145;-86
2021/09/27 13:49:21;;;;;;;10.30;7.25;;;;;;;;;;5028317;28;20117;-84
2021/09/27 13:51:49;;;;;;;11.52;7.75;;;;;;;;;;5026061;28;20112;-84
2021/09/27 13:54:20;;;;;;;11.95;7.50;;;;;;;;;;5025764;28;20320;-84
2021/09/27 13:56:47;;;;;;;9.48;7.22;;;;;;;;;;5022064;28;20099;-84
2021/09/27 13:59:14;;;;;;;9.50;7.10;;;;;;;;;;5024414;28;20038;-84
2021/09/27 14:01:43;;;;;;;12.07;7.47;;;;;;;;;;5020025;28;20460;-84
2021/09/27 14:04:10;;;;;;;10.07;6.88;;;;;;;;;;5028611;28;20060;-84
2021/09/27 14:06:37;;;;;;;14.60;8.15;;;;;;;;;;5035181;28;20037;-85
2021/09/27 14:09:05;;;;;;;10.65;7.28;;;;;;;;;;5045685;28;20048;-83
2021/09/27 14:11:33;;;;;;;11.80;6.65;;;;;;;;;;5032553;28;20448;-85
2021/09/27 14:14:00;;;;;;;9.75;7.90;;;;;;;;;;5026564;28;20061;-85
2021/09/27 14:16:27;;;;;;;8.63;7.40;;;;;;;;;;5027211;28;20049;-83
2021/09/27 14:18:54;;;;;;;12.23;7.70;;;;;;;;;;5020400;28;20093;-83
2021/09/27 14:21:22;;;;;;;11.20;7.40;;;;;;;;;;4993961;28;20046;-85
2021/09/27 14:23:51;;;;;;;12.00;7.38;;;;;;;;;;4994154;28;20046;-85
2021/09/27 14:26:18;;;;;;;9.35;7.40;;;;;;;;;;4991787;28;20115;-84
2021/09/27 14:28:49;;;;;;;11.65;7.78;;;;;;;;;;5009810;28;20116;-86
2021/09/27 14:31:17;;;;;;;13.38;8.05;;;;;;;;;;4979935;28;20440;-85
2021/09/27 14:33:44;;;;;;;15.93;7.95;;;;;;;;;;5010199;28;20340;-85
2021/09/27 14:36:12;;;;;;;11.38;7.82;;;;;;;;;;5000198;28;20184;-85
2021/09/27 14:38:39;;;;;;;10.52;7.53;;;;;;;;;;4990152;28;20650;-85
2021/09/27 14:41:06;;;;;;;8.50;6.85;;;;;;;;;;4992494;28;20245;-85
2021/09/27 14:43:33;;;;;;;11.38;7.55;;;;;;;;;;4997111;28;20077;-85
2021/09/27 14:46:00;;;;;;;13.18;8.30;;;;;;;;;;5016529;28;20049;-85
2021/09/27 14:48:28;;;;;;;13.15;7.13;;;;;;;;;;4999118;28;20113;-85
2021/09/27 14:50:54;;;;;;;11.80;7.07;;;;;;;;;;4993747;28;20082;-84
2021/09/27 14:53:25;;;;;;;8.50;7.60;;;;;;;;;;5023801;28;20294;-84
2021/09/27 14:55:53;;;;;;;10.55;7.40;;;;;;;;;;4996221;28;20249;-85
2021/09/27 14:58:25;;;;;;;16.23;7.13;;;;;;;;;;5006593;28;20049;-84
2021/09/27 15:00:52;;;;;;;10.55;6.65;;;;;;;;;;5014085;28;20053;-85
2021/09/27 15:03:23;;;;;;;13.88;7.57;;;;;;;;;;5011938;28;20045;-84